createdAt,value
2022-07-31T00:01:27.958Z,1.70
2022-07-31T00:04:02.766Z,1.52
2022-07-31T00:06:33.129Z,1.63
2022-07-31T00:09:48.867Z,1.50
2022-07-31T00:12:00.872Z,1.80
2022-07-31T00:14:30.375Z,1.73
2022-07-31T00:17:11.894Z,1.70
2022-07-31T00:19:47.301Z,1.90
2022-07-31T00:22:16.586Z,1.83
2022-07-31T00:24:50.338Z,1.60
2022-07-31T00:27:25.227Z,1.60
2022-07-31T00:29:57.190Z,1.70
2022-07-31T00:32:31.479Z,1.80
2022-07-31T00:35:03.557Z,2.23
2022-07-31T00:37:33.035Z,2.63
2022-07-31T00:40:02.564Z,1.70
2022-07-31T00:42:31.741Z,1.70
2022-07-31T00:45:01.135Z,1.80
2022-07-31T00:47:32.816Z,1.87
2022-07-31T00:50:08.370Z,1.60
2022-07-31T00:52:37.737Z,1.80
2022-07-31T00:55:09.414Z,1.83
2022-07-31T00:57:41.576Z,1.97
2022-07-31T01:00:16.265Z,1.90
2022-07-31T01:02:46.494Z,2.00
2022-07-31T01:05:22.405Z,2.03
2022-07-31T01:07:51.802Z,2.17
2022-07-31T01:10:31.036Z,1.90
2022-07-31T01:13:08.599Z,2.20
2022-07-31T01:15:40.641Z,2.10
2022-07-31T01:18:17.239Z,2.13
2022-07-31T01:20:52.536Z,2.10
2022-07-31T01:24:05.008Z,2.33
2022-07-31T01:26:47.136Z,2.20
2022-07-31T01:29:26.254Z,2.20
2022-07-31T01:32:08.337Z,2.20
2022-07-31T01:34:46.180Z,2.13
2022-07-31T01:37:21.113Z,2.10
2022-07-31T01:39:54.379Z,2.20
2022-07-31T01:42:27.228Z,2.50
2022-07-31T01:45:02.040Z,2.20
2022-07-31T01:47:36.603Z,2.10
2022-07-31T01:50:07.803Z,2.10
2022-07-31T01:52:40.803Z,2.00
2022-07-31T01:55:16.681Z,2.30
2022-07-31T01:57:50.290Z,2.23
2022-07-31T02:00:34.129Z,2.30
2022-07-31T02:03:09.806Z,2.20
2022-07-31T02:05:42.618Z,2.50
2022-07-31T02:08:13.576Z,2.30
2022-07-31T02:10:49.701Z,2.60
2022-07-31T02:13:19.827Z,2.60
2022-07-31T02:16:04.929Z,2.40
2022-07-31T02:18:37.467Z,2.10
2022-07-31T02:21:09.695Z,2.53
2022-07-31T02:23:42.883Z,2.40
2022-07-31T02:26:18.765Z,2.60
2022-07-31T02:28:53.225Z,3.07
2022-07-31T02:31:25.360Z,3.03
2022-07-31T02:33:55.494Z,3.00
2022-07-31T02:36:31.518Z,2.73
2022-07-31T02:39:01.252Z,3.20
2022-07-31T02:41:30.918Z,2.67
2022-07-31T02:44:03.783Z,2.70
2022-07-31T02:46:34.983Z,2.70
2022-07-31T02:49:07.917Z,2.77
2022-07-31T02:51:42.739Z,2.73
2022-07-31T02:54:15.334Z,2.40
2022-07-31T02:56:46.748Z,2.80
2022-07-31T02:59:19.637Z,2.70
2022-07-31T03:01:50.353Z,2.70
2022-07-31T03:04:22.520Z,2.37
2022-07-31T03:06:54.326Z,2.50
2022-07-31T03:09:23.808Z,2.50
2022-07-31T03:11:53.362Z,2.67
2022-07-31T03:14:24.331Z,2.80
2022-07-31T03:17:04.890Z,2.80
2022-07-31T03:19:34.533Z,2.30
2022-07-31T03:22:04.990Z,2.80
2022-07-31T03:24:35.507Z,2.73
2022-07-31T03:27:05.147Z,2.40
2022-07-31T03:29:43.285Z,2.23
2022-07-31T03:32:15.346Z,2.83
2022-07-31T03:34:45.481Z,2.47
2022-07-31T03:37:14.874Z,2.43
2022-07-31T03:39:48.480Z,2.77
2022-07-31T03:42:19.450Z,2.73
2022-07-31T03:44:50.278Z,2.40
2022-07-31T03:47:21.269Z,2.67
2022-07-31T03:49:51.247Z,2.50
2022-07-31T03:52:23.773Z,2.30
2022-07-31T03:54:53.057Z,2.50
2022-07-31T03:57:26.159Z,2.70
2022-07-31T04:00:03.040Z,3.03
2022-07-31T04:02:34.382Z,2.90
2022-07-31T04:05:09.784Z,2.80
2022-07-31T04:07:42.032Z,2.67
2022-07-31T04:10:12.285Z,2.87
2022-07-31T04:12:41.552Z,2.77
2022-07-31T04:15:11.558Z,2.97
2022-07-31T04:17:48.047Z,2.20
2022-07-31T04:20:18.882Z,2.50
2022-07-31T04:22:51.411Z,2.33
2022-07-31T04:25:25.244Z,2.57
2022-07-31T04:27:54.649Z,2.53
2022-07-31T04:30:24.065Z,2.77
2022-07-31T04:32:54.702Z,2.23
2022-07-31T04:35:29.222Z,2.30
2022-07-31T04:38:04.389Z,2.43
2022-07-31T04:40:33.675Z,2.50
2022-07-31T04:43:09.103Z,2.20
2022-07-31T04:45:41.117Z,2.20
2022-07-31T04:48:12.914Z,2.37
2022-07-31T04:50:44.165Z,2.60
2022-07-31T04:53:13.523Z,2.67
2022-07-31T04:55:43.521Z,2.60
2022-07-31T04:58:13.169Z,2.47
2022-07-31T05:00:42.690Z,2.80
2022-07-31T05:03:13.779Z,2.80
2022-07-31T05:05:46.548Z,2.40
2022-07-31T05:08:16.059Z,2.50
2022-07-31T05:11:02.620Z,2.43
2022-07-31T05:13:32.027Z,2.50
2022-07-31T05:16:03.111Z,2.70
2022-07-31T05:18:34.552Z,3.10
2022-07-31T05:21:04.077Z,2.50
2022-07-31T05:23:35.510Z,2.50
2022-07-31T05:26:05.511Z,2.20
2022-07-31T05:28:39.115Z,2.60
2022-07-31T05:31:13.685Z,2.43
2022-07-31T05:33:44.762Z,2.47
2022-07-31T05:36:14.792Z,2.70
2022-07-31T05:38:46.687Z,2.60
2022-07-31T05:41:19.696Z,2.50
2022-07-31T05:43:49.102Z,2.40
2022-07-31T05:46:18.493Z,2.53
2022-07-31T05:48:52.605Z,2.20
2022-07-31T05:51:23.061Z,2.50
2022-07-31T05:53:55.345Z,2.85
2022-07-31T05:56:26.543Z,2.90
2022-07-31T05:58:57.270Z,2.53
2022-07-31T06:01:27.427Z,2.78
2022-07-31T06:04:01.016Z,3.03
2022-07-31T06:06:33.276Z,3.00
2022-07-31T06:09:04.660Z,3.10
2022-07-31T06:11:34.485Z,3.55
2022-07-31T06:14:03.880Z,3.35
2022-07-31T06:16:38.927Z,3.20
2022-07-31T06:19:10.012Z,3.03
2022-07-31T06:21:40.980Z,3.42
2022-07-31T06:24:13.217Z,3.42
2022-07-31T06:26:44.457Z,4.00
2022-07-31T06:29:17.946Z,3.95
2022-07-31T06:31:47.226Z,3.80
2022-07-31T06:34:20.029Z,3.90
2022-07-31T06:36:52.395Z,3.97
2022-07-31T06:39:25.034Z,3.85
2022-07-31T06:42:20.600Z,4.18
2022-07-31T06:44:50.251Z,4.15
2022-07-31T06:47:23.639Z,4.82
2022-07-31T06:49:57.565Z,4.80
2022-07-31T06:52:27.927Z,4.90
2022-07-31T06:54:57.580Z,4.00
2022-07-31T06:57:26.977Z,4.00
2022-07-31T06:59:56.619Z,4.00
2022-07-31T07:02:25.895Z,4.10
2022-07-31T07:05:05.787Z,4.30
2022-07-31T07:07:38.147Z,4.80
2022-07-31T07:10:12.589Z,4.57
2022-07-31T07:12:41.786Z,4.30
2022-07-31T07:15:14.680Z,3.97
2022-07-31T07:17:45.382Z,5.60
2022-07-31T07:20:17.399Z,5.63
2022-07-31T07:22:49.803Z,4.95
2022-07-31T07:25:22.465Z,5.28
2022-07-31T07:27:52.579Z,5.80
2022-07-31T07:30:22.125Z,5.95
2022-07-31T07:32:53.937Z,5.07
2022-07-31T07:35:28.627Z,4.97
2022-07-31T07:38:00.624Z,5.63
2022-07-31T07:40:32.303Z,5.53
2022-07-31T07:43:04.831Z,5.50
2022-07-31T07:45:37.108Z,6.53
2022-07-31T07:48:12.749Z,5.53
2022-07-31T07:50:43.471Z,5.45
2022-07-31T07:53:13.471Z,6.13
2022-07-31T07:55:44.437Z,6.05
2022-07-31T07:58:16.477Z,5.90
2022-07-31T08:00:51.555Z,5.55
2022-07-31T08:03:49.637Z,5.78
2022-07-31T08:06:20.571Z,5.88
2022-07-31T08:08:54.179Z,5.32
2022-07-31T08:11:24.412Z,5.05
2022-07-31T08:13:56.709Z,5.00
2022-07-31T08:16:27.661Z,4.72
2022-07-31T08:18:57.187Z,5.30
2022-07-31T08:21:31.261Z,5.18
2022-07-31T08:24:00.551Z,4.50
2022-07-31T08:26:56.111Z,4.38
2022-07-31T08:29:28.699Z,4.63
2022-07-31T08:31:58.275Z,4.65
2022-07-31T08:34:31.298Z,11.40
2022-07-31T08:38:02.303Z,6.35
2022-07-31T08:40:05.630Z,4.35
2022-07-31T08:42:38.004Z,4.38
2022-07-31T08:45:17.730Z,4.20
2022-07-31T08:47:54.327Z,4.00
2022-07-31T08:50:35.254Z,3.40
2022-07-31T08:53:08.374Z,3.40
2022-07-31T08:55:56.444Z,3.47
2022-07-31T08:58:39.027Z,3.15
2022-07-31T09:01:11.958Z,2.80
2022-07-31T09:03:49.668Z,3.17
2022-07-31T09:06:19.075Z,2.70
2022-07-31T09:08:53.273Z,2.72
2022-07-31T09:11:22.794Z,2.83
2022-07-31T09:14:02.011Z,2.53
2022-07-31T09:16:39.248Z,2.78
2022-07-31T09:19:52.453Z,2.50
2022-07-31T09:22:01.572Z,2.80
2022-07-31T09:24:39.539Z,3.85
2022-07-31T09:27:14.661Z,3.85
2022-07-31T09:29:45.860Z,3.47
2022-07-31T09:32:19.349Z,3.88
2022-07-31T09:34:58.342Z,3.45
2022-07-31T09:37:31.365Z,4.20
2022-07-31T09:40:11.061Z,4.20
2022-07-31T09:42:48.427Z,4.70
2022-07-31T09:45:26.313Z,4.47
2022-07-31T09:48:17.109Z,4.30
2022-07-31T09:51:02.795Z,5.13
2022-07-31T09:53:43.743Z,4.45
2022-07-31T09:56:16.365Z,5.13
2022-07-31T09:58:48.409Z,5.13
2022-07-31T10:01:26.197Z,5.70
2022-07-31T10:04:01.978Z,5.18
2022-07-31T10:06:39.421Z,5.25
2022-07-31T10:09:09.655Z,4.95
2022-07-31T10:11:44.582Z,4.63
2022-07-31T10:14:25.992Z,4.60
2022-07-31T10:17:00.542Z,4.82
2022-07-31T10:19:39.131Z,4.40
2022-07-31T10:22:15.485Z,4.53
2022-07-31T10:24:55.871Z,4.82
2022-07-31T10:27:27.080Z,5.03
2022-07-31T10:29:57.318Z,4.50
2022-07-31T10:32:35.062Z,4.60
2022-07-31T10:35:08.038Z,4.93
2022-07-31T10:37:46.643Z,4.63
2022-07-31T10:40:26.289Z,4.50
2022-07-31T10:43:14.979Z,4.32
2022-07-31T10:45:52.307Z,4.53
2022-07-31T10:48:34.303Z,4.50
2022-07-31T10:51:16.792Z,4.18
2022-07-31T10:54:03.122Z,3.30
2022-07-31T10:56:48.188Z,3.35
2022-07-31T10:59:33.480Z,2.92
2022-07-31T11:02:08.096Z,2.80
2022-07-31T11:04:40.551Z,2.70
2022-07-31T11:07:21.520Z,3.00
2022-07-31T11:09:55.794Z,2.85
2022-07-31T11:12:26.522Z,2.33
2022-07-31T11:15:03.976Z,2.10
2022-07-31T11:18:21.123Z,2.30
2022-07-31T11:20:30.024Z,2.15
2022-07-31T11:23:04.933Z,1.90
2022-07-31T11:25:37.212Z,2.80
2022-07-31T11:28:28.349Z,2.10
2022-07-31T11:31:06.978Z,2.33
2022-07-31T11:33:43.347Z,2.45
2022-07-31T11:36:17.663Z,2.50
2022-07-31T11:38:51.987Z,2.70
2022-07-31T11:41:25.239Z,2.28
2022-07-31T11:44:00.764Z,2.65
2022-07-31T11:46:33.643Z,2.88
2022-07-31T11:49:09.064Z,2.63
2022-07-31T11:51:41.830Z,2.80
2022-07-31T11:54:20.800Z,2.88
2022-07-31T11:56:58.246Z,3.15
2022-07-31T11:59:45.559Z,3.60
2022-07-31T12:02:26.231Z,3.55
2022-07-31T12:04:58.369Z,3.47
2022-07-31T12:07:37.499Z,2.72
2022-07-31T12:10:10.861Z,3.20
2022-07-31T12:12:43.976Z,3.00
2022-07-31T12:15:25.162Z,3.00
2022-07-31T12:18:09.222Z,2.63
2022-07-31T12:20:38.831Z,2.72
2022-07-31T12:23:38.418Z,2.60
2022-07-31T12:26:04.086Z,2.53
2022-07-31T12:28:33.672Z,2.15
2022-07-31T12:31:06.431Z,2.55
2022-07-31T12:33:46.040Z,2.30
2022-07-31T12:36:28.769Z,2.30
2022-07-31T12:39:03.091Z,2.20
2022-07-31T12:41:43.814Z,2.78
2022-07-31T12:44:21.475Z,1.98
2022-07-31T12:46:53.378Z,2.00
2022-07-31T12:49:32.421Z,2.80
2022-07-31T12:52:01.905Z,2.17
2022-07-31T12:54:41.738Z,2.40
2022-07-31T12:57:11.424Z,2.33
2022-07-31T12:59:41.146Z,2.67
2022-07-31T13:02:16.668Z,2.80
2022-07-31T13:04:47.392Z,2.47
2022-07-31T13:07:21.230Z,2.40
2022-07-31T13:10:15.037Z,2.33
2022-07-31T13:12:44.518Z,2.28
2022-07-31T13:15:16.928Z,2.33
2022-07-31T13:17:48.198Z,2.10
2022-07-31T13:20:24.368Z,2.20
2022-07-31T13:22:55.698Z,2.00
2022-07-31T13:25:28.990Z,2.10
2022-07-31T13:28:01.099Z,2.05
2022-07-31T13:30:32.290Z,2.30
2022-07-31T13:33:06.384Z,2.22
2022-07-31T13:35:44.314Z,2.50
2022-07-31T13:38:15.160Z,2.22
2022-07-31T13:41:07.231Z,2.08
2022-07-31T13:43:40.963Z,2.50
2022-07-31T13:46:34.972Z,2.20
2022-07-31T13:49:08.846Z,2.35
2022-07-31T13:51:41.319Z,2.10
2022-07-31T13:54:13.837Z,2.35
2022-07-31T13:56:49.846Z,2.15
2022-07-31T13:59:24.644Z,2.47
2022-07-31T14:02:03.405Z,1.90
2022-07-31T14:04:40.486Z,2.08
2022-07-31T14:07:13.743Z,1.92
2022-07-31T14:09:55.059Z,2.00
2022-07-31T14:12:33.945Z,2.00
2022-07-31T14:15:04.626Z,2.00
2022-07-31T14:17:43.985Z,2.10
2022-07-31T14:20:23.587Z,2.00
2022-07-31T14:23:04.631Z,2.20
2022-07-31T14:25:34.153Z,2.22
2022-07-31T14:28:08.727Z,2.35
2022-07-31T14:30:47.002Z,2.45
2022-07-31T14:33:22.648Z,2.30
2022-07-31T14:35:55.453Z,2.15
2022-07-31T14:38:28.638Z,2.42
2022-07-31T14:41:04.173Z,2.33
2022-07-31T14:43:34.451Z,2.88
2022-07-31T14:46:06.690Z,3.38
2022-07-31T14:48:38.972Z,3.53
2022-07-31T14:51:08.489Z,3.40
2022-07-31T14:53:47.876Z,3.92
2022-07-31T14:56:34.690Z,4.60
2022-07-31T14:59:13.474Z,3.95
2022-07-31T15:01:45.791Z,4.15
2022-07-31T15:04:20.878Z,3.63
2022-07-31T15:07:07.831Z,3.42
2022-07-31T15:09:49.725Z,3.30
2022-07-31T15:12:21.475Z,4.10
2022-07-31T15:14:52.205Z,3.20
2022-07-31T15:17:22.567Z,2.78
2022-07-31T15:19:59.408Z,3.45
2022-07-31T15:22:28.935Z,3.05
2022-07-31T15:24:59.666Z,3.03
2022-07-31T15:27:31.936Z,2.78
2022-07-31T15:30:07.748Z,2.60
2022-07-31T15:32:38.663Z,2.78
2022-07-31T15:35:14.777Z,2.80
2022-07-31T15:37:46.018Z,3.38
2022-07-31T15:40:27.269Z,3.38
2022-07-31T15:42:58.988Z,3.40
2022-07-31T15:45:34.224Z,3.13
2022-07-31T15:48:10.087Z,3.58
2022-07-31T15:50:47.078Z,3.42
2022-07-31T15:53:18.153Z,3.67
2022-07-31T15:55:49.896Z,4.15
2022-07-31T15:58:21.049Z,3.10
2022-07-31T16:00:57.459Z,2.67
2022-07-31T16:03:29.922Z,2.47
2022-07-31T16:06:28.132Z,2.47
2022-07-31T16:09:07.377Z,2.33
2022-07-31T16:12:02.852Z,2.28
2022-07-31T16:14:31.989Z,2.28
2022-07-31T16:17:01.501Z,2.40
2022-07-31T16:19:33.749Z,2.10
2022-07-31T16:22:09.084Z,2.50
2022-07-31T16:24:43.279Z,2.17
2022-07-31T16:27:21.231Z,2.40
2022-07-31T16:30:01.634Z,2.55
2022-07-31T16:32:36.596Z,2.85
2022-07-31T16:35:10.652Z,3.03
2022-07-31T16:37:52.222Z,3.67
2022-07-31T16:40:30.793Z,3.38
2022-07-31T16:43:47.929Z,4.55
2022-07-31T16:46:01.291Z,6.35
2022-07-31T16:48:38.252Z,7.80
2022-07-31T16:51:11.020Z,8.88
2022-07-31T16:54:12.046Z,7.97
2022-07-31T16:56:33.237Z,7.78
2022-07-31T16:59:07.834Z,9.18
2022-07-31T17:01:58.693Z,9.73
2022-07-31T17:04:32.626Z,10.75
2022-07-31T17:07:05.696Z,12.00
2022-07-31T17:09:35.874Z,12.85
2022-07-31T17:12:10.678Z,12.85
2022-07-31T17:14:45.397Z,14.05
2022-07-31T17:17:19.200Z,13.80
2022-07-31T17:19:55.108Z,13.60
2022-07-31T17:22:30.051Z,11.90
2022-07-31T17:25:02.897Z,12.68
2022-07-31T17:27:34.694Z,13.90
2022-07-31T17:30:11.478Z,13.80
2022-07-31T17:32:41.100Z,13.27
2022-07-31T17:35:15.620Z,13.02
2022-07-31T17:37:51.997Z,13.02
2022-07-31T17:40:43.395Z,13.27
2022-07-31T17:43:19.827Z,14.48
2022-07-31T17:46:17.654Z,13.75
2022-07-31T17:48:58.991Z,12.98
2022-07-31T17:51:38.570Z,13.73
2022-07-31T17:54:26.981Z,16.30
2022-07-31T17:56:57.844Z,14.60
2022-07-31T17:59:27.535Z,15.43
2022-07-31T18:02:07.197Z,15.68
2022-07-31T18:04:45.487Z,17.17
2022-07-31T18:07:20.355Z,17.70
2022-07-31T18:09:59.341Z,15.95
2022-07-31T18:12:28.985Z,17.02
2022-07-31T18:15:20.584Z,15.48
2022-07-31T18:17:55.887Z,17.50
2022-07-31T18:20:37.540Z,17.00
2022-07-31T18:23:17.983Z,16.35
2022-07-31T18:25:57.440Z,16.05
2022-07-31T18:28:37.202Z,14.10
2022-07-31T18:31:31.837Z,14.45
2022-07-31T18:34:14.497Z,12.32
2022-07-31T18:36:46.425Z,12.63
2022-07-31T18:39:23.886Z,13.65
2022-07-31T18:42:06.005Z,12.13
2022-07-31T18:44:37.494Z,12.52
2022-07-31T18:47:09.372Z,12.05
2022-07-31T18:51:00.225Z,11.13
2022-07-31T18:52:39.829Z,10.32
2022-07-31T18:55:16.787Z,10.13
2022-07-31T18:57:47.630Z,10.55
2022-07-31T19:00:19.465Z,9.82
2022-07-31T19:02:54.043Z,10.50
2022-07-31T19:05:29.391Z,10.88
2022-07-31T19:07:59.032Z,11.33
2022-07-31T19:10:29.250Z,11.13
2022-07-31T19:13:01.213Z,13.03
2022-07-31T19:15:36.382Z,11.40
2022-07-31T19:18:14.038Z,11.03
2022-07-31T19:21:00.325Z,11.53
2022-07-31T19:23:40.942Z,17.53
2022-07-31T19:26:10.577Z,12.50
2022-07-31T19:28:49.584Z,15.10
2022-07-31T19:31:19.044Z,14.23
2022-07-31T19:33:48.747Z,15.20
2022-07-31T19:36:21.074Z,14.63
2022-07-31T19:38:51.814Z,16.00
2022-07-31T19:41:23.753Z,14.40
2022-07-31T19:44:06.431Z,14.90
2022-07-31T19:46:37.751Z,16.97
2022-07-31T19:49:17.145Z,15.40
2022-07-31T19:51:57.104Z,19.27
2022-07-31T19:54:26.369Z,14.85
2022-07-31T19:59:43.617Z,14.45
2022-07-31T20:02:17.075Z,13.97
2022-07-31T20:04:49.700Z,13.67
2022-07-31T20:07:22.287Z,15.25
2022-07-31T20:09:56.977Z,13.57
2022-07-31T20:12:32.717Z,13.93
2022-07-31T20:15:07.160Z,13.40
2022-07-31T20:17:40.049Z,13.33
2022-07-31T20:20:16.268Z,12.93
2022-07-31T20:22:55.229Z,13.63
2022-07-31T20:25:26.154Z,13.20
2022-07-31T20:27:57.180Z,13.80
2022-07-31T20:30:28.486Z,14.73
2022-07-31T20:33:02.968Z,12.70
2022-07-31T20:35:48.011Z,12.63
2022-07-31T20:38:28.661Z,14.68
2022-07-31T20:41:04.422Z,15.33
2022-07-31T20:43:36.259Z,16.05
2022-07-31T20:46:07.193Z,15.37
2022-07-31T20:48:39.352Z,15.67
2022-07-31T20:51:23.327Z,15.25
2022-07-31T20:53:58.208Z,16.43
2022-07-31T20:56:32.874Z,15.63
2022-07-31T20:59:09.389Z,14.43
2022-07-31T21:01:45.931Z,16.37
2022-07-31T21:04:20.887Z,16.97
2022-07-31T21:06:52.581Z,16.30
2022-07-31T21:09:27.994Z,16.33
2022-07-31T21:11:59.049Z,15.93
2022-07-31T21:14:33.772Z,15.93
2022-07-31T21:17:10.609Z,14.60
2022-07-31T21:19:45.975Z,14.33
2022-07-31T21:22:17.734Z,13.90
2022-07-31T21:25:03.503Z,14.20
2022-07-31T21:27:33.397Z,13.63
2022-07-31T21:30:03.531Z,14.30
2022-07-31T21:32:37.236Z,14.10
2022-07-31T21:35:19.644Z,14.30
2022-07-31T21:38:11.779Z,14.70
2022-07-31T21:40:43.731Z,15.17
2022-07-31T21:43:16.701Z,16.30
2022-07-31T21:46:01.610Z,16.10
2022-07-31T21:48:32.719Z,13.40
2022-07-31T21:51:05.233Z,15.93
2022-07-31T21:53:35.582Z,15.93
2022-07-31T21:56:14.939Z,16.47
2022-07-31T21:58:57.781Z,15.90
2022-07-31T22:01:29.452Z,16.23
2022-07-31T22:04:03.192Z,16.00
2022-07-31T22:06:54.563Z,16.43
2022-07-31T22:09:35.118Z,16.63
2022-07-31T22:12:11.627Z,17.35
2022-07-31T22:14:45.207Z,16.87
2022-07-31T22:17:16.082Z,16.73
2022-07-31T22:19:47.565Z,17.30
2022-07-31T22:22:18.204Z,16.10
2022-07-31T22:24:51.008Z,18.50
2022-07-31T22:27:56.610Z,15.87
2022-07-31T22:30:27.009Z,18.13
2022-07-31T22:33:07.177Z,17.70
2022-07-31T22:35:37.540Z,18.13
2022-07-31T22:38:09.019Z,18.77
2022-07-31T22:40:44.018Z,19.10
2022-07-31T22:44:11.378Z,18.90
2022-07-31T22:46:15.829Z,21.17
2022-07-31T22:48:53.547Z,18.58
2022-07-31T22:51:22.798Z,19.67
2022-07-31T22:53:52.435Z,19.60
2022-07-31T22:56:24.621Z,18.23
2022-07-31T22:58:57.971Z,18.03
2022-07-31T23:01:29.215Z,19.93
2022-07-31T23:04:02.171Z,20.15
2022-07-31T23:06:34.462Z,20.00
2022-07-31T23:09:08.949Z,19.92
2022-07-31T23:11:38.433Z,20.20
2022-07-31T23:14:17.663Z,21.97
2022-07-31T23:16:47.305Z,21.73
2022-07-31T23:19:16.586Z,22.67
2022-07-31T23:21:52.115Z,21.95
2022-07-31T23:24:21.516Z,23.73
2022-07-31T23:26:53.675Z,23.13
2022-07-31T23:29:27.433Z,23.05
2022-07-31T23:32:05.769Z,20.07
2022-07-31T23:34:39.765Z,21.43
2022-07-31T23:37:11.936Z,20.73
2022-07-31T23:39:41.214Z,21.37
2022-07-31T23:42:27.652Z,21.10
2022-07-31T23:45:12.150Z,20.80
2022-07-31T23:47:46.875Z,20.52
2022-07-31T23:50:17.097Z,19.60
2022-07-31T23:52:47.595Z,21.33
2022-07-31T23:55:19.865Z,20.10
2022-07-31T23:57:49.150Z,20.80
